createdAt,value
2019-04-06T00:01:48.062Z,53.39
2019-04-06T00:06:51.399Z,53.45
2019-04-06T00:11:54.448Z,53.40
2019-04-06T00:16:57.616Z,53.73
2019-04-06T00:22:00.734Z,53.92
2019-04-06T00:27:03.914Z,54.16
2019-04-06T00:32:25.802Z,54.57
2019-04-06T00:37:28.899Z,54.57
2019-04-06T00:42:31.951Z,54.69
2019-04-06T00:47:35.312Z,54.92
2019-04-06T00:52:38.435Z,55.05
2019-04-06T00:57:41.610Z,54.95
2019-04-06T01:02:44.739Z,55.37
2019-04-06T01:07:48.251Z,55.41
2019-04-06T01:12:51.474Z,55.57
2019-04-06T01:17:54.432Z,55.51
2019-04-06T01:22:57.417Z,55.67
2019-04-06T01:28:00.517Z,55.51
2019-04-06T01:33:03.808Z,55.48
2019-04-06T01:38:06.906Z,55.61
2019-04-06T01:43:10.139Z,55.75
2019-04-06T01:48:13.239Z,56.27
2019-04-06T01:53:16.303Z,56.36
2019-04-06T01:58:19.448Z,56.58
2019-04-06T02:03:22.603Z,56.77
2019-04-06T02:08:25.608Z,56.93
2019-04-06T02:13:28.774Z,57.31
2019-04-06T02:18:31.965Z,57.22
2019-04-06T02:23:35.177Z,57.51
2019-04-06T02:28:38.535Z,57.63
2019-04-06T02:34:16.189Z,57.90
2019-04-06T02:39:32.795Z,58.38
2019-04-06T02:44:35.140Z,58.46
2019-04-06T02:49:38.372Z,58.86
2019-04-06T02:54:41.637Z,58.89
2019-04-06T02:59:44.707Z,58.86
2019-04-06T03:04:47.807Z,59.01
2019-04-06T03:09:51.092Z,58.87
2019-04-06T03:14:54.193Z,58.78
2019-04-06T03:19:57.139Z,59.02
2019-04-06T03:25:00.324Z,59.61
2019-04-06T03:30:04.938Z,59.36
2019-04-06T03:35:08.460Z,59.49
2019-04-06T03:40:12.217Z,59.64
2019-04-06T03:45:16.045Z,59.65
2019-04-06T03:50:19.233Z,60.31
2019-04-06T03:55:22.556Z,60.09
2019-04-06T04:00:25.909Z,60.59
2019-04-06T04:05:29.077Z,60.89
2019-04-06T04:10:34.746Z,61.32
2019-04-06T04:15:38.147Z,61.67
2019-04-06T04:20:41.198Z,61.65
2019-04-06T04:25:44.537Z,61.88
2019-04-06T04:30:47.675Z,61.33
2019-04-06T04:35:50.764Z,61.05
2019-04-06T04:40:53.906Z,61.69
2019-04-06T04:45:57.104Z,61.22
2019-04-06T04:51:00.235Z,61.89
2019-04-06T04:56:03.475Z,61.23
2019-04-06T05:01:06.444Z,61.60
2019-04-06T05:06:09.575Z,61.03
2019-04-06T05:11:12.644Z,61.00
2019-04-06T05:16:18.396Z,61.12
2019-04-06T05:21:21.363Z,62.41
2019-04-06T05:26:24.518Z,64.13
2019-04-06T05:31:27.656Z,64.38
2019-04-06T05:36:31.048Z,64.35
2019-04-06T05:41:34.153Z,64.39
2019-04-06T05:46:37.233Z,63.41
2019-04-06T05:51:40.194Z,63.36
2019-04-06T05:56:43.288Z,64.94
2019-04-06T06:01:48.467Z,62.91
2019-04-06T06:06:51.824Z,63.70
2019-04-06T06:11:55.934Z,61.86
2019-04-06T06:16:59.192Z,60.99
2019-04-06T06:22:02.293Z,60.31
2019-04-06T06:27:05.516Z,60.38
2019-04-06T06:32:08.640Z,60.40
2019-04-06T06:37:11.839Z,59.22
2019-04-06T06:42:14.809Z,59.95
2019-04-06T06:47:17.998Z,59.19
2019-04-06T06:52:20.940Z,58.96
2019-04-06T06:57:24.284Z,59.05
2019-04-06T07:02:27.604Z,58.88
2019-04-06T07:07:30.888Z,58.90
2019-04-06T07:12:34.071Z,58.70
2019-04-06T07:17:37.206Z,58.24
2019-04-06T07:22:40.245Z,58.77
2019-04-06T07:27:43.432Z,58.77
2019-04-06T07:32:46.875Z,57.83
2019-04-06T07:37:49.883Z,57.22
2019-04-06T07:42:53.449Z,57.47
2019-04-06T07:47:56.697Z,56.96
2019-04-06T07:52:59.766Z,56.27
2019-04-06T07:58:02.927Z,56.45
2019-04-06T08:03:06.315Z,56.72
2019-04-06T08:08:09.797Z,56.92
2019-04-06T08:13:12.954Z,57.35
2019-04-06T08:18:15.947Z,57.02
2019-04-06T08:23:19.763Z,57.27
2019-04-06T08:28:23.512Z,57.56
2019-04-06T08:33:28.108Z,57.21
2019-04-06T08:38:31.486Z,56.55
2019-04-06T08:43:34.440Z,56.96
2019-04-06T08:48:37.549Z,56.55
2019-04-06T08:53:40.899Z,56.17
2019-04-06T08:58:44.188Z,55.95
2019-04-06T09:03:47.296Z,56.64
2019-04-06T09:08:51.105Z,58.12
2019-04-06T09:13:54.271Z,58.51
2019-04-06T09:18:57.527Z,57.22
2019-04-06T09:24:01.155Z,56.38
2019-04-06T09:29:04.305Z,54.67
2019-04-06T09:34:07.819Z,53.82
2019-04-06T09:39:11.647Z,52.86
2019-04-06T09:44:24.409Z,53.22
2019-04-06T09:49:59.204Z,53.42
2019-04-06T09:55:21.972Z,53.21
2019-04-06T10:00:35.322Z,51.88
2019-04-06T10:05:56.961Z,52.63
2019-04-06T10:11:22.548Z,51.55
2019-04-06T10:16:37.650Z,50.93
2019-04-06T10:22:09.044Z,51.26
2019-04-06T10:27:30.680Z,51.62
2019-04-06T10:32:52.088Z,51.52
2019-04-06T10:38:03.896Z,51.45
2019-04-06T10:43:20.954Z,50.68
2019-04-06T10:48:46.290Z,48.88
2019-04-06T10:53:57.348Z,48.63
2019-04-06T10:59:19.357Z,49.46
2019-04-06T11:04:48.267Z,49.81
2019-04-06T11:10:09.290Z,50.19
2019-04-06T11:15:31.048Z,50.92
2019-04-06T11:20:44.880Z,50.08
2019-04-06T11:26:10.750Z,50.58
2019-04-06T11:31:34.992Z,51.44
2019-04-06T11:36:57.769Z,51.36
2019-04-06T11:42:23.803Z,51.89
2019-04-06T11:47:38.495Z,52.50
2019-04-06T11:53:07.063Z,54.26
2019-04-06T11:58:17.992Z,57.48
2019-04-06T12:03:26.875Z,59.32
2019-04-06T12:08:55.530Z,61.21
2019-04-06T12:14:21.288Z,62.99
2019-04-06T12:19:52.844Z,63.83
2019-04-06T12:25:18.261Z,75.84
2019-04-06T12:30:37.726Z,80.52
2019-04-06T12:36:09.434Z,79.18
2019-04-06T12:41:37.777Z,79.29
2019-04-06T12:47:00.535Z,77.50
2019-04-06T12:52:23.698Z,79.27
2019-04-06T12:57:46.383Z,78.51
2019-04-06T13:03:21.064Z,81.24
2019-04-06T13:08:33.705Z,81.45
2019-04-06T13:14:02.224Z,83.66
2019-04-06T13:19:27.714Z,85.86
2019-04-06T13:24:49.740Z,88.41
2019-04-06T13:30:12.314Z,89.36
2019-04-06T13:35:33.825Z,90.41
2019-04-06T13:40:54.260Z,90.67
2019-04-06T13:46:15.885Z,89.00
2019-04-06T13:51:38.599Z,90.67
2019-04-06T13:57:07.459Z,91.39
2019-04-06T14:02:28.621Z,91.07
2019-04-06T14:07:54.457Z,91.00
2019-04-06T14:13:29.232Z,91.13
2019-04-06T14:18:47.669Z,91.71
2019-04-06T14:24:28.500Z,92.00
2019-04-06T14:30:00.424Z,91.66
2019-04-06T14:35:10.332Z,92.23
2019-04-06T14:40:31.929Z,92.22
2019-04-06T14:45:55.184Z,92.10
2019-04-06T14:51:17.658Z,92.12
2019-04-06T14:56:36.156Z,92.62
2019-04-06T15:02:01.463Z,92.46
2019-04-06T15:07:13.711Z,91.67
2019-04-06T15:12:36.250Z,89.60
2019-04-06T15:17:54.893Z,89.73
2019-04-06T15:23:27.237Z,90.25
2019-04-06T15:28:48.621Z,89.87
2019-04-06T15:34:11.321Z,90.93
2019-04-06T15:39:40.075Z,90.69
2019-04-06T15:45:02.642Z,90.68
2019-04-06T15:50:24.490Z,91.05
2019-04-06T15:55:40.605Z,91.20
2019-04-06T16:01:12.153Z,90.33
2019-04-06T16:06:24.219Z,90.57
2019-04-06T16:11:52.294Z,91.59
2019-04-06T16:17:18.028Z,92.79
2019-04-06T16:22:30.561Z,93.68
2019-04-06T16:27:56.045Z,93.38
2019-04-06T16:33:09.111Z,93.17
2019-04-06T16:38:41.139Z,92.96
2019-04-06T16:44:02.326Z,92.82
2019-04-06T16:49:25.255Z,92.53
2019-04-06T16:54:59.979Z,92.37
2019-04-06T17:00:24.040Z,92.88
2019-04-06T17:05:36.629Z,92.87
2019-04-06T17:10:47.981Z,93.11
2019-04-06T17:16:05.695Z,93.16
2019-04-06T17:21:20.293Z,93.15
2019-04-06T17:26:49.226Z,92.71
2019-04-06T17:32:12.159Z,92.49
2019-04-06T17:37:40.476Z,92.99
2019-04-06T17:42:59.503Z,92.91
2019-04-06T17:48:35.004Z,92.74
2019-04-06T17:53:59.607Z,92.23
2019-04-06T17:59:21.163Z,92.35
2019-04-06T18:04:46.967Z,93.18
2019-04-06T18:10:00.412Z,94.11
2019-04-06T18:15:04.254Z,94.36
2019-04-06T18:20:08.556Z,94.39
2019-04-06T18:25:12.240Z,94.01
2019-04-06T18:30:16.870Z,94.02
2019-04-06T18:35:20.013Z,94.22
2019-04-06T18:40:25.887Z,93.92
2019-04-06T18:45:31.377Z,93.99
2019-04-06T18:50:38.313Z,93.56
2019-04-06T18:55:39.393Z,93.27
2019-04-06T19:00:42.385Z,93.25
2019-04-06T19:05:45.719Z,92.80
2019-04-06T19:10:48.691Z,93.02
2019-04-06T19:15:51.917Z,92.68
2019-04-06T19:20:54.973Z,92.83
2019-04-06T19:25:57.982Z,93.24
2019-04-06T19:31:00.987Z,93.15
2019-04-06T19:36:04.361Z,92.73
2019-04-06T19:41:07.499Z,91.24
2019-04-06T19:46:11.196Z,92.07
2019-04-06T19:51:14.883Z,92.21
2019-04-06T19:56:18.183Z,91.83
2019-04-06T20:01:21.302Z,91.78
2019-04-06T20:06:24.860Z,91.54
2019-04-06T20:11:28.089Z,90.85
2019-04-06T20:16:31.107Z,90.95
2019-04-06T20:21:34.665Z,91.70
2019-04-06T20:26:38.543Z,91.44
2019-04-06T20:31:41.809Z,91.36
2019-04-06T20:36:45.157Z,90.34
2019-04-06T20:41:48.665Z,91.26
2019-04-06T20:46:51.763Z,91.01
2019-04-06T20:51:55.002Z,90.23
2019-04-06T20:56:59.087Z,90.57
2019-04-06T21:02:02.850Z,90.91
2019-04-06T21:07:06.639Z,91.27
2019-04-06T21:12:09.702Z,91.25
2019-04-06T21:17:12.752Z,91.53
2019-04-06T21:22:16.175Z,92.34
2019-04-06T21:27:19.720Z,91.90
2019-04-06T21:32:23.110Z,92.05
2019-04-06T21:37:26.371Z,92.14
2019-04-06T21:42:29.616Z,91.95
2019-04-06T21:47:33.989Z,91.93
2019-04-06T21:52:37.378Z,92.31
2019-04-06T21:57:40.501Z,92.93
2019-04-06T22:02:43.754Z,93.11
2019-04-06T22:07:50.796Z,93.62
2019-04-06T22:12:52.426Z,93.74
2019-04-06T22:17:55.703Z,93.01
2019-04-06T22:22:58.842Z,92.65
2019-04-06T22:28:01.956Z,92.53
2019-04-06T22:33:05.101Z,92.90
2019-04-06T22:38:08.203Z,93.17
2019-04-06T22:43:11.276Z,93.81
2019-04-06T22:48:14.729Z,93.53
2019-04-06T22:53:17.693Z,92.98
2019-04-06T22:58:20.915Z,93.53
2019-04-06T23:03:43.543Z,92.79
2019-04-06T23:08:46.594Z,92.14
2019-04-06T23:13:49.521Z,91.71
2019-04-06T23:18:52.626Z,91.64
2019-04-06T23:23:55.670Z,92.75
2019-04-06T23:28:58.784Z,91.78
2019-04-06T23:34:02.150Z,91.54
2019-04-06T23:39:07.041Z,90.65
2019-04-06T23:44:10.059Z,90.28
2019-04-06T23:49:13.354Z,90.60
2019-04-06T23:54:16.820Z,91.25
2019-04-06T23:59:19.998Z,91.26
